Terminal Aerodrome Forecast
Issued by NWS Cheyenne, WY

Home | Current Version | Previous Version | Text Only | Print | Product List | Glossary On
Versions: 1 2 3 4 5 6 7 8 9 10 11 12 13 14 15 16 17 18 19 20 21 22 23 24 25 26 27 28 29 30 31 32
000
FTUS45 KCYS 221100
TAFCYS
TAF
KCYS 221139Z 2212/2312 25008KT P6SM -SHRA SCT050 BKN090
     FM221400 22005KT P6SM BKN070
     FM221800 19010KT P6SM VCTS SCT060CB BKN100
     FM230300 21007KT P6SM SCT025 BKN040
     FM230800 27008KT P6SM SCT100=

USA.gov is the U.S. government's official web portal to all federal, state and local government web resources and services.